ADDS METAR Data INFO
IDs: Format: Raw Decoded Include TAF

Data at: 2053 UTC 26 May 2017

KAPY 262035Z AUTO 20003KT 10SM CLR 36/22 A2976 RMK AO2 T03600219
KAPY 262015Z AUTO 21003KT 7SM CLR 35/22 A2977 RMK AO2 T03560222
KAPY 261955Z AUTO 00000KT 10SM CLR 35/22 A2978 RMK AO2 T03480220
KAPY 261935Z AUTO 21003KT 7SM CLR 35/22 A2978 RMK AO2 T03500221
KAPY 261915Z AUTO 14003KT 7SM SCT039 35/22 A2979 RMK AO2 T03500221
KAPY 261855Z AUTO 15005KT 7SM SCT037 34/22 A2980 RMK AO2 T03420220
KAPY 261815Z AUTO 14006G14KT 7SM BKN033 33/22 A2981 RMK AO2 T03320222
KAPY 261755Z AUTO 13009G15KT 7SM OVC031 32/22 A2981 RMK AO2 T03240224
KAPY 261735Z AUTO 13005KT 7SM OVC031 31/22 A2982 RMK AO2 T03190225
KAPY 261715Z AUTO 11005KT 7SM OVC031 31/22 A2982 RMK AO2 T03100222
KAPY 261655Z AUTO 14007KT 7SM OVC029 30/22 A2982 RMK AO2 T03050225
KAPY 261635Z AUTO 16006KT 7SM OVC027 29/22 A2982 RMK AO2 T02950224
KAPY 261615Z AUTO 15005KT 7SM BKN023 OVC028 29/22 A2982 RMK AO2 T02920225
KAPY 261555Z AUTO 16006KT 7SM OVC021 28/22 A2982 RMK AO2 T02900225
KAPY 261535Z AUTO 15006KT 7SM OVC019 28/22 A2981 RMK AO2 T02830223
KAPY 261515Z AUTO 15007KT 7SM OVC019 27/22 A2980 RMK AO2 T02780226
KAPY 261455Z AUTO 14009KT 7SM OVC017 27/22 A2979 RMK AO2 T02750225
KAPY 261435Z AUTO 15011G17KT 7SM OVC015 27/22 A2980 RMK AO2 T02700223
KAPY 261415Z AUTO 14012G17KT 7SM OVC013 26/22 A2979 RMK AO2 T02670223
KAPY 261355Z AUTO 15011G15KT 7SM OVC013 26/22 A2979 RMK AO2 T02650223
KAPY 261335Z AUTO 14006G14KT 7SM OVC013 26/22 A2978 RMK AO2 T02620223
KAPY 261315Z AUTO 13008KT 7SM OVC013 26/22 A2978 RMK AO2 T02600223
KAPY 261255Z AUTO 14007KT 7SM OVC015 25/22 A2977 RMK AO2 T02570225
KAPY 261235Z AUTO 13007KT 7SM OVC013 25/22 A2977 RMK AO2 T02550225
KAPY 261215Z AUTO 14007KT 7SM OVC013 25/22 A2977 RMK AO2 T02550224
KAPY 261155Z AUTO 14007KT 7SM OVC013 25/22 A2976 RMK AO2 T02530223
KAPY 261135Z AUTO 13008KT 7SM OVC013 25/22 A2975 RMK AO2 T02550223
KAPY 261115Z AUTO 14007KT 10SM OVC013 25/22 A2975 RMK AO2 T02550223
KAPY 261055Z AUTO 13009G14KT 10SM OVC013 25/22 A2975 RMK AO2 T02550223
KAPY 261035Z AUTO 13012G17KT 10SM OVC013 25/22 A2974 RMK AO2 T02530225
KAPY 261015Z AUTO 13008KT 7SM OVC013 25/22 A2974 RMK AO2 T02520223
KAPY 260955Z AUTO 13008KT 10SM OVC013 25/22 A2973 RMK AO2 T02540223
KAPY 260935Z AUTO 15010G16KT 10SM OVC013 25/22 A2972 RMK AO2 T02550223
KAPY 260915Z AUTO 14008KT 10SM OVC013 25/22 A2972 RMK AO2 T02550223
KAPY 260855Z AUTO 14006G16KT 10SM OVC013 25/22 A2972 RMK AO2 T02550222
KAPY 260835Z AUTO 14009G17KT 10SM OVC013 25/22 A2972 RMK AO2 T02550222
KAPY 260815Z AUTO 15011G18KT 10SM OVC015 25/22 A2972 RMK AO2 T02560222
KAPY 260755Z AUTO 14010G18KT 10SM OVC015 25/22 A2972 RMK AO2 T02570222
KAPY 260735Z AUTO 14012G19KT 10SM OVC015 25/22 A2972 RMK AO2 T02570222
KAPY 260715Z AUTO 14011G16KT 10SM BKN015 26/22 A2972 RMK AO2 T02590222
KAPY 260655Z AUTO 14011G18KT 10SM BKN015 26/22 A2973 RMK AO2 T02600221
KAPY 260635Z AUTO 14010G17KT 10SM OVC017 26/22 A2974 RMK AO2 T02610222
KAPY 260615Z AUTO 14010G17KT 10SM BKN017 26/22 A2974 RMK AO2 T02620222
KAPY 260555Z AUTO 13008G17KT 10SM CLR 26/22 A2974 RMK AO2 T02650222
KAPY 260535Z AUTO 13012G19KT 10SM CLR 26/22 A2974 RMK AO2 T02660221
KAPY 260515Z AUTO 14011G19KT 10SM CLR 26/22 A2975 RMK AO2 T02680220
KAPY 260455Z AUTO 13007G17KT 10SM CLR 27/21 A2975 RMK AO2 T02700219
KAPY 260435Z AUTO 14010G20KT 10SM CLR 27/22 A2975 RMK AO2 T02730220
KAPY 260415Z AUTO 14010G17KT 10SM CLR 27/22 A2974 RMK AO2 T02750221
KAPY 260355Z AUTO 14012G19KT 10SM CLR 27/22 A2973 RMK AO2 T02770222
KAPY 260335Z AUTO 14013G23KT 10SM CLR 27/22 A2972 RMK AO2 T02800222
KAPY 260315Z AUTO 14015G22KT 10SM CLR 28/22 A2972 RMK AO2 T02830223
KAPY 260255Z AUTO 13013G24KT 10SM CLR 28/22 A2970 RMK AO2 T02890225
KAPY 260235Z AUTO 13011G23KT 10SM CLR 29/22 A2969 RMK AO2 T02970225
KAPY 260215Z AUTO 13013G19KT 10SM CLR 30/22 A2968 RMK AO2 T03050223
KAPY 260155Z AUTO 13011G19KT 10SM CLR 31/22 A2967 RMK AO2 T03120221
KAPY 260135Z AUTO 13010G20KT 10SM CLR 32/21 A2966 RMK AO2 T03200217
KAPY 260115Z AUTO 12010G17KT 10SM CLR 32/21 A2966 RMK AO2 T03280212
KAPY 260055Z AUTO 13010G18KT 10SM CLR 33/20 A2965 RMK AO2 T03370205
KAPY 260035Z AUTO 14013G16KT 10SM CLR 34/20 A2965 RMK AO2 T03450201
KAPY 260015Z AUTO 13011G19KT 10SM CLR 35/20 A2964 RMK AO2 T03500197
KAPY 252355Z AUTO 14009G18KT 10SM CLR 35/19 A2964 RMK AO2 T03560196
KAPY 252335Z AUTO 12011G17KT 10SM CLR 36/19 A2964 RMK AO2 T03590195
KAPY 252315Z AUTO 14013G18KT 10SM CLR 36/19 A2964 RMK AO2 T03620193
KAPY 252255Z AUTO 15008G17KT 10SM CLR 36/19 A2964 RMK AO2 T03630193
KAPY 252235Z AUTO 14012G21KT 10SM CLR 36/19 A2964 RMK AO2 T03650192
KAPY 252215Z AUTO 14012G19KT 10SM CLR 36/18 A2964 RMK AO2 T03650191
KAPY 252155Z AUTO 14011G17KT 10SM CLR 36/18 A2965 RMK AO2 T03650190
KAPY 252135Z AUTO 13010G20KT 10SM CLR 36/18 A2966 RMK AO2 T03630188
KAPY 252115Z AUTO 15011G20KT 10SM CLR 36/18 A2966 RMK AO2 T03590187
KAPY 252055Z AUTO 14012G18KT 10SM CLR 35/19 A2967 RMK AO2 T03570193
KAPY 252035Z AUTO 15009G20KT 10SM CLR 35/19 A2969 RMK AO2 T03520192
KAPY 252015Z AUTO 14012G19KT 10SM CLR 35/18 A2970 RMK AO2 T03530190
KAPY 251955Z AUTO 14013KT 10SM CLR 35/18 A2971 RMK AO2 T03530191
KAPY 251935Z AUTO 14010G16KT 10SM CLR 34/19 A2971 RMK AO2 T03460193
KAPY 251915Z AUTO 15012G18KT 10SM CLR 33/19 A2972 RMK AO2 T03400193
KAPY 251855Z AUTO 13008G18KT 10SM CLR 33/20 A2972 RMK AO2 T03320198
KAPY 251835Z AUTO 13009G18KT 10SM CLR 33/20 A2973 RMK AO2 T03330199
KAPY 251815Z AUTO 12011G18KT 100V170 10SM CLR 32/19 A2974 RMK AO2 T03230197
KAPY 251755Z AUTO 14009G15KT 10SM CLR 32/20 A2975 RMK AO2 T03190200
KAPY 251735Z AUTO 15010G18KT 110V180 10SM CLR 31/20 A2975 RMK AO2 T03130198
KAPY 251715Z AUTO 14011G18KT 10SM CLR 30/19 A2976 RMK AO2 T03070196
KAPY 251655Z AUTO 16009G14KT 130V190 10SM CLR 30/19 A2977 RMK AO2 T03030195
KAPY 251635Z AUTO 15008KT 10SM CLR 29/19 A2978 RMK AO2 T02960195
KAPY 251615Z AUTO 15011G14KT 7SM CLR 28/19 A2978 RMK AO2 T02870191
KAPY 251555Z AUTO 13009G15KT 10SM CLR 27/18 A2978 RMK AO2 T02770190
KAPY 251535Z AUTO 14011G17KT 10SM CLR 27/18 A2978 RMK AO2 T02740187
KAPY 251515Z AUTO 16012G18KT 10SM CLR 27/18 A2978 RMK AO2 T02700186
KAPY 251455Z AUTO 16010G16KT 10SM CLR 26/18 A2978 RMK AO2 T02660186
KAPY 251435Z AUTO 14012G18KT 10SM CLR 26/18 A2978 RMK AO2 T02580182
KAPY 251415Z AUTO 14011G16KT 10SM CLR 25/17 A2978 RMK AO2 T02470177
KAPY 251355Z AUTO 15009G17KT 10SM CLR 23/17 A2978 RMK AO2 T02380172
KAPY 251335Z AUTO 14010G15KT 10SM CLR 23/16 A2978 RMK AO2 T02310169
KAPY 251315Z AUTO 14008G14KT 10SM CLR 22/16 A2978 RMK AO2 T02220165
KAPY 251255Z AUTO 14004KT 10SM CLR 21/16 A2977 RMK AO2 T02130161
KAPY 251235Z AUTO 14007KT 10SM CLR 20/16 A2977 RMK AO2 T02050158
KAPY 251215Z AUTO 14005KT 10SM CLR 19/15 A2977 RMK AO2 T01970155
KAPY 251155Z AUTO 14006KT 10SM CLR 19/15 A2977 RMK AO2 T01950154
KAPY 251135Z AUTO 14006KT 10SM CLR 19/15 A2977 RMK AO2 T01950152
KAPY 251115Z AUTO 14006KT 10SM CLR 19/15 A2977 RMK AO2 T01960151
KAPY 251055Z AUTO 15006KT 10SM CLR 20/15 A2977 RMK AO2 T01970150
KAPY 251035Z AUTO 14006KT 10SM CLR 20/15 A2976 RMK AO2 T02000150
KAPY 251015Z AUTO 14005KT 10SM CLR 20/15 A2977 RMK AO2 T01990147
KAPY 250955Z AUTO 14006KT 10SM CLR 20/14 A2977 RMK AO2 T02000146
KAPY 250935Z AUTO 13007KT 10SM CLR 20/14 A2976 RMK AO2 T02010145
KAPY 250915Z AUTO 13007KT 10SM CLR 20/14 A2976 RMK AO2 T02010145
KAPY 250855Z AUTO 14007KT 10SM CLR 20/14 A2976 RMK AO2 T02050143


Page loaded:  20:53 UTC  |   01:53 PM Pacific  |   02:53 PM Mountain  |   03:53 PM Central  |   04:53 PM Eastern

 

ADVISORIES

FORECASTS

FORECASTS

OBSERVATIONS

USER TOOLS

ABOUT US